createdAt,value
2019-05-28T00:00:40.263Z,17.00
2019-05-28T00:03:18.643Z,16.67
2019-05-28T00:05:47.834Z,16.44
2019-05-28T00:08:16.937Z,16.06
2019-05-28T00:10:46.258Z,16.13
2019-05-28T00:13:17.260Z,16.36
2019-05-28T00:15:46.382Z,16.58
2019-05-28T00:18:17.232Z,16.40
2019-05-28T00:20:50.173Z,16.50
2019-05-28T00:23:20.051Z,16.84
2019-05-28T00:25:49.175Z,16.75
2019-05-28T00:28:19.751Z,16.59
2019-05-28T00:30:52.170Z,16.76
2019-05-28T00:33:21.430Z,16.61
2019-05-28T00:35:51.904Z,16.58
2019-05-28T00:38:23.497Z,16.95
2019-05-28T00:40:52.630Z,17.07
2019-05-28T00:43:23.793Z,16.74
2019-05-28T00:45:53.867Z,16.64
2019-05-28T00:48:23.008Z,16.44
2019-05-28T00:50:54.781Z,16.48
2019-05-28T00:53:24.025Z,16.37
2019-05-28T00:55:55.394Z,15.96
2019-05-28T00:58:30.922Z,15.92
2019-05-28T01:01:00.075Z,15.93
2019-05-28T01:03:29.581Z,15.77
2019-05-28T01:06:00.546Z,15.71
2019-05-28T01:08:29.646Z,15.66
2019-05-28T01:10:59.727Z,15.54
2019-05-28T01:13:29.029Z,16.09
2019-05-28T01:15:58.161Z,16.22
2019-05-28T01:18:33.684Z,16.19
2019-05-28T01:21:02.825Z,16.23
2019-05-28T01:23:33.114Z,15.95
2019-05-28T01:26:03.443Z,15.68
2019-05-28T01:28:35.738Z,15.97
2019-05-28T01:31:08.878Z,16.28
2019-05-28T01:33:41.494Z,16.04
2019-05-28T01:36:11.009Z,16.52
2019-05-28T01:38:41.466Z,16.52
2019-05-28T01:41:12.862Z,16.02
2019-05-28T01:43:43.352Z,15.94
2019-05-28T01:46:14.084Z,16.45
2019-05-28T01:48:43.250Z,16.56
2019-05-28T01:51:12.392Z,16.80
2019-05-28T01:53:41.522Z,16.87
2019-05-28T01:56:11.700Z,17.14
2019-05-28T01:58:41.743Z,17.03
2019-05-28T02:01:13.445Z,16.33
2019-05-28T02:03:44.032Z,16.24
2019-05-28T02:06:15.041Z,16.44
2019-05-28T02:08:44.178Z,16.61
2019-05-28T02:11:13.311Z,16.87
2019-05-28T02:13:44.086Z,17.32
2019-05-28T02:16:13.187Z,16.98
2019-05-28T02:18:45.733Z,17.46
2019-05-28T02:21:16.108Z,17.35
2019-05-28T02:23:46.531Z,17.55
2019-05-28T02:26:18.991Z,17.57
2019-05-28T02:28:48.272Z,17.65
2019-05-28T02:31:27.406Z,17.30
2019-05-28T02:33:48.401Z,17.45
2019-05-28T02:36:17.594Z,17.42
2019-05-28T02:38:46.751Z,17.46
2019-05-28T02:41:20.954Z,17.30
2019-05-28T02:43:50.035Z,16.97
2019-05-28T02:46:21.115Z,16.29
2019-05-28T02:48:52.468Z,16.67
2019-05-28T02:51:30.708Z,16.82
2019-05-28T02:54:02.876Z,16.42
2019-05-28T02:56:36.287Z,16.65
2019-05-28T02:59:09.641Z,16.83
2019-05-28T03:01:44.706Z,16.69
2019-05-28T03:04:17.855Z,16.41
2019-05-28T03:06:48.949Z,16.08
2019-05-28T03:09:22.121Z,16.03
2019-05-28T03:11:51.263Z,16.19
2019-05-28T03:14:20.415Z,16.29
2019-05-28T03:16:51.429Z,16.17
2019-05-28T03:19:20.876Z,16.21
2019-05-28T03:21:54.800Z,15.68
2019-05-28T03:24:29.044Z,15.76
2019-05-28T03:26:59.676Z,15.22
2019-05-28T03:29:28.877Z,15.48
2019-05-28T03:32:08.839Z,15.82
2019-05-28T03:34:30.017Z,15.75
2019-05-28T03:37:02.064Z,15.67
2019-05-28T03:39:34.646Z,15.90
2019-05-28T03:42:08.421Z,15.32
2019-05-28T03:44:37.858Z,15.52
2019-05-28T03:47:11.724Z,15.42
2019-05-28T03:49:45.120Z,15.62
2019-05-28T03:52:14.403Z,15.73
2019-05-28T03:54:43.553Z,15.79
2019-05-28T03:57:14.460Z,15.63
2019-05-28T03:59:43.791Z,15.60
2019-05-28T04:02:23.208Z,15.60
2019-05-28T04:04:46.558Z,14.90
2019-05-28T04:07:17.213Z,15.40
2019-05-28T04:09:48.835Z,13.02
2019-05-28T04:12:17.962Z,15.21
2019-05-28T04:14:47.263Z,15.33
2019-05-28T04:17:23.780Z,15.18
2019-05-28T04:19:53.162Z,13.54
2019-05-28T04:22:22.782Z,15.09
2019-05-28T04:24:54.817Z,14.79
2019-05-28T04:27:23.933Z,15.07
2019-05-28T04:29:56.529Z,15.11
2019-05-28T04:32:39.340Z,14.69
2019-05-28T04:35:00.586Z,14.78
2019-05-28T04:37:30.136Z,14.72
2019-05-28T04:39:59.416Z,14.55
2019-05-28T04:42:31.809Z,14.42
2019-05-28T04:45:06.965Z,5.09
2019-05-28T04:47:38.760Z,14.16
2019-05-28T04:50:07.869Z,14.60
2019-05-28T04:52:38.715Z,15.03
2019-05-28T04:55:08.561Z,14.63
2019-05-28T04:57:38.303Z,14.82
2019-05-28T05:00:07.540Z,14.58
2019-05-28T05:02:36.820Z,14.68
2019-05-28T05:05:10.663Z,14.80
2019-05-28T05:07:41.636Z,14.24
2019-05-28T05:10:14.161Z,14.17
2019-05-28T05:12:44.588Z,14.32
2019-05-28T05:15:19.443Z,14.25
2019-05-28T05:17:49.464Z,14.85
2019-05-28T05:20:20.050Z,15.41
2019-05-28T05:22:51.118Z,14.94
2019-05-28T05:25:22.336Z,15.52
2019-05-28T05:27:52.690Z,15.91
2019-05-28T05:30:25.271Z,15.58
2019-05-28T05:32:56.908Z,15.90
2019-05-28T05:35:26.218Z,16.13
2019-05-28T05:37:56.703Z,16.06
2019-05-28T05:40:30.492Z,16.14
2019-05-28T05:42:59.595Z,16.36
2019-05-28T05:45:30.809Z,16.00
2019-05-28T05:48:00.181Z,15.88
2019-05-28T05:50:29.731Z,16.12
2019-05-28T05:52:59.287Z,16.20
2019-05-28T05:55:28.344Z,16.49
2019-05-28T05:58:00.682Z,16.33
2019-05-28T06:00:31.624Z,15.85
2019-05-28T06:03:00.772Z,15.89
2019-05-28T06:05:32.273Z,15.90
2019-05-28T06:08:02.281Z,16.44
2019-05-28T06:10:36.598Z,16.67
2019-05-28T06:13:09.077Z,16.98
2019-05-28T06:15:39.447Z,17.13
2019-05-28T06:18:09.079Z,16.92
2019-05-28T06:20:39.602Z,16.69
2019-05-28T06:23:09.347Z,16.57
2019-05-28T06:25:42.736Z,16.29
2019-05-28T06:28:13.953Z,16.23
2019-05-28T06:30:46.074Z,15.68
2019-05-28T06:33:15.597Z,15.40
2019-05-28T06:35:45.968Z,15.96
2019-05-28T06:38:19.495Z,15.79
2019-05-28T06:40:48.807Z,15.67
2019-05-28T06:43:19.027Z,15.79
2019-05-28T06:45:48.144Z,15.46
2019-05-28T06:48:20.645Z,15.04
2019-05-28T06:50:49.881Z,14.96
2019-05-28T06:53:20.632Z,14.89
2019-05-28T06:55:52.825Z,15.32
2019-05-28T06:58:37.861Z,15.27
2019-05-28T07:00:59.110Z,14.84
2019-05-28T07:03:28.222Z,15.18
2019-05-28T07:06:07.041Z,14.72
2019-05-28T07:08:34.783Z,14.55
2019-05-28T07:11:04.414Z,14.53
2019-05-28T07:13:38.337Z,15.12
2019-05-28T07:16:08.439Z,14.97
2019-05-28T07:18:41.199Z,14.91
2019-05-28T07:21:08.793Z,14.86
2019-05-28T07:23:39.613Z,15.05
2019-05-28T07:26:09.438Z,14.97
2019-05-28T07:28:41.739Z,15.32
2019-05-28T07:31:14.055Z,15.06
2019-05-28T07:33:43.248Z,15.49
2019-05-28T07:36:15.021Z,15.62
2019-05-28T07:38:44.319Z,16.29
2019-05-28T07:41:15.081Z,15.67
2019-05-28T07:43:44.191Z,15.93
2019-05-28T07:46:14.803Z,15.48
2019-05-28T07:48:46.196Z,15.65
2019-05-28T07:51:15.405Z,16.48
2019-05-28T07:53:44.942Z,17.04
2019-05-28T07:56:15.067Z,15.94
2019-05-28T07:58:50.475Z,16.28
2019-05-28T08:01:20.757Z,16.09
2019-05-28T08:03:49.831Z,16.81
2019-05-28T08:06:20.154Z,17.08
2019-05-28T08:08:51.795Z,17.21
2019-05-28T08:11:21.030Z,16.33
2019-05-28T08:13:52.375Z,15.73
2019-05-28T08:16:24.013Z,15.50
2019-05-28T08:18:52.303Z,16.21
2019-05-28T08:21:25.198Z,16.62
2019-05-28T08:23:54.418Z,15.84
2019-05-28T08:26:23.558Z,16.23
2019-05-28T08:28:59.698Z,16.24
2019-05-28T08:31:30.821Z,16.50
2019-05-28T08:34:00.900Z,16.67
2019-05-28T08:36:36.561Z,16.07
2019-05-28T08:39:09.835Z,16.86
2019-05-28T08:41:39.068Z,16.74
2019-05-28T08:44:08.550Z,16.53
2019-05-28T08:46:37.768Z,16.56
2019-05-28T08:49:11.453Z,16.60
2019-05-28T08:51:37.843Z,16.86
2019-05-28T08:54:07.131Z,17.10
2019-05-28T08:56:36.515Z,17.18
2019-05-28T08:59:11.500Z,17.21
2019-05-28T09:01:46.686Z,17.03
2019-05-28T09:04:16.873Z,16.04
2019-05-28T09:06:49.034Z,16.15
2019-05-28T09:09:18.414Z,15.68
2019-05-28T09:11:50.108Z,15.76
2019-05-28T09:14:19.765Z,16.04
2019-05-28T09:16:53.895Z,15.74
2019-05-28T09:19:25.355Z,15.73
2019-05-28T09:22:05.632Z,15.96
2019-05-28T09:24:34.872Z,15.41
2019-05-28T09:27:05.772Z,16.09
2019-05-28T09:29:34.918Z,16.26
2019-05-28T09:32:05.210Z,16.03
2019-05-28T09:34:38.341Z,15.43
2019-05-28T09:37:07.524Z,15.46
2019-05-28T09:39:39.195Z,15.47
2019-05-28T09:42:09.660Z,15.75
2019-05-28T09:44:45.679Z,15.39
2019-05-28T09:47:17.383Z,15.47
2019-05-28T09:49:47.762Z,15.83
2019-05-28T09:52:16.886Z,15.78
2019-05-28T09:54:48.594Z,15.79
2019-05-28T09:57:20.340Z,15.36
2019-05-28T09:59:50.108Z,15.67
2019-05-28T10:02:20.924Z,15.45
2019-05-28T10:04:52.690Z,15.58
2019-05-28T10:07:25.477Z,15.22
2019-05-28T10:09:58.828Z,15.29
2019-05-28T10:12:29.198Z,15.38
2019-05-28T10:14:58.721Z,15.75
2019-05-28T10:17:33.248Z,15.54
2019-05-28T10:20:06.875Z,15.88
2019-05-28T10:22:43.133Z,15.55
2019-05-28T10:25:13.174Z,16.12
2019-05-28T10:27:59.509Z,16.12
2019-05-28T10:30:17.031Z,15.63
2019-05-28T10:32:48.795Z,16.17
2019-05-28T10:35:19.819Z,16.08
2019-05-28T10:37:53.193Z,16.07
2019-05-28T10:40:22.423Z,16.22
2019-05-28T10:42:54.758Z,15.61
2019-05-28T10:45:24.743Z,13.55
2019-05-28T10:47:54.156Z,15.73
2019-05-28T10:50:23.589Z,16.52
2019-05-28T10:53:07.802Z,16.16
2019-05-28T10:55:36.957Z,16.66
2019-05-28T10:58:06.436Z,16.81
2019-05-28T11:00:42.670Z,16.20
2019-05-28T11:03:16.806Z,16.42
2019-05-28T11:05:49.114Z,16.06
2019-05-28T11:08:23.182Z,16.32
2019-05-28T11:10:55.088Z,16.07
2019-05-28T11:13:24.362Z,16.24
2019-05-28T11:15:53.680Z,16.08
2019-05-28T11:18:26.773Z,16.22
2019-05-28T11:20:57.622Z,16.39
2019-05-28T11:23:27.252Z,16.51
2019-05-28T11:25:56.791Z,15.98
2019-05-28T11:28:29.334Z,16.33
2019-05-28T11:31:02.651Z,16.32
2019-05-28T11:33:40.942Z,16.28
2019-05-28T11:36:10.325Z,17.08
2019-05-28T11:38:40.292Z,16.62
2019-05-28T11:41:12.650Z,16.95
2019-05-28T11:43:41.990Z,16.94
2019-05-28T11:46:18.314Z,17.21
2019-05-28T11:48:47.389Z,16.73
2019-05-28T11:51:23.644Z,17.76
2019-05-28T11:53:54.324Z,17.98
2019-05-28T11:56:26.517Z,17.67
2019-05-28T11:58:57.602Z,16.85
2019-05-28T12:01:34.240Z,17.21
2019-05-28T12:04:02.717Z,17.68
2019-05-28T12:06:37.964Z,17.25
2019-05-28T12:09:03.359Z,17.27
2019-05-28T12:11:34.947Z,17.03
2019-05-28T12:14:04.553Z,16.89
2019-05-28T12:16:36.084Z,17.06
2019-05-28T12:19:09.514Z,17.48
2019-05-28T12:21:38.897Z,18.23
2019-05-28T12:24:10.623Z,17.98
2019-05-28T12:26:41.649Z,17.73
2019-05-28T12:29:15.286Z,17.67
2019-05-28T12:31:44.428Z,17.73
2019-05-28T12:34:17.358Z,17.48
2019-05-28T12:36:46.554Z,18.11
2019-05-28T12:39:15.746Z,18.16
2019-05-28T12:42:00.800Z,18.25
2019-05-28T12:44:17.357Z,18.53
2019-05-28T12:46:50.733Z,17.94
2019-05-28T12:49:19.912Z,18.30
2019-05-28T12:51:52.580Z,18.88
2019-05-28T12:57:19.037Z,18.74
2019-05-28T12:59:55.196Z,18.43
2019-05-28T13:02:24.371Z,18.24
2019-05-28T13:04:55.216Z,18.22
2019-05-28T13:07:27.729Z,19.06
2019-05-28T13:09:57.230Z,18.50
2019-05-28T13:12:29.430Z,18.71
2019-05-28T13:14:58.586Z,17.78
2019-05-28T13:17:28.071Z,17.87
2019-05-28T13:20:02.819Z,17.99
2019-05-28T13:22:31.953Z,17.92
2019-05-28T13:25:02.526Z,17.49
2019-05-28T13:27:37.120Z,18.65
2019-05-28T13:30:07.873Z,18.45
2019-05-28T13:32:37.177Z,18.72
2019-05-28T13:35:07.446Z,18.40
2019-05-28T13:37:41.405Z,18.57
2019-05-28T13:40:12.825Z,19.07
2019-05-28T13:42:42.354Z,19.38
2019-05-28T13:45:14.058Z,19.62
2019-05-28T13:47:44.146Z,19.44
2019-05-28T13:50:13.753Z,18.52
2019-05-28T13:52:42.909Z,19.13
2019-05-28T13:55:15.042Z,18.93
2019-05-28T13:57:44.616Z,18.76
2019-05-28T14:00:16.689Z,18.89
2019-05-28T14:02:48.023Z,19.02
2019-05-28T14:05:18.973Z,18.91
2019-05-28T14:07:48.074Z,18.72
2019-05-28T14:10:19.894Z,18.92
2019-05-28T14:12:49.858Z,19.44
2019-05-28T14:15:20.216Z,19.98
2019-05-28T14:17:49.918Z,20.10
2019-05-28T14:20:21.909Z,19.39
2019-05-28T14:22:51.862Z,19.67
2019-05-28T14:25:22.627Z,20.31
2019-05-28T14:27:54.890Z,20.15
2019-05-28T14:30:27.944Z,19.67
2019-05-28T14:33:08.511Z,20.34
2019-05-28T14:35:38.787Z,19.86
2019-05-28T14:38:10.811Z,20.52
2019-05-28T14:40:43.845Z,19.77
2019-05-28T14:43:14.232Z,18.93
2019-05-28T14:45:45.231Z,17.99
2019-05-28T14:48:14.354Z,19.75
2019-05-28T14:50:50.709Z,20.15
2019-05-28T14:53:22.933Z,20.17
2019-05-28T14:55:52.240Z,19.85
2019-05-28T14:58:22.532Z,19.96
2019-05-28T15:00:54.648Z,19.68
2019-05-28T15:03:23.975Z,19.86
2019-05-28T15:06:00.411Z,19.73
2019-05-28T15:08:36.698Z,19.91
2019-05-28T15:11:16.456Z,19.45
2019-05-28T15:13:47.215Z,19.90
2019-05-28T15:16:23.143Z,19.33
2019-05-28T15:18:52.067Z,19.51
2019-05-28T15:21:26.140Z,19.38
2019-05-28T15:23:57.719Z,18.60
2019-05-28T15:26:28.370Z,18.32
2019-05-28T15:29:02.856Z,18.48
2019-05-28T15:31:40.453Z,18.08
2019-05-28T15:34:09.738Z,17.72
2019-05-28T15:36:43.994Z,17.72
2019-05-28T15:39:13.124Z,17.30
2019-05-28T15:41:44.255Z,17.91
2019-05-28T15:44:13.454Z,17.70
2019-05-28T15:46:42.592Z,18.13
2019-05-28T15:49:12.809Z,17.63
2019-05-28T15:51:43.683Z,17.73
2019-05-28T15:54:14.982Z,17.64
2019-05-28T15:56:45.913Z,17.79
2019-05-28T15:59:21.724Z,17.35
2019-05-28T16:01:53.789Z,17.21
2019-05-28T16:04:22.928Z,17.51
2019-05-28T16:06:59.583Z,17.33
2019-05-28T16:09:31.796Z,17.39
2019-05-28T16:12:01.151Z,17.75
2019-05-28T16:14:30.253Z,17.92
2019-05-28T16:16:59.399Z,18.07
2019-05-28T16:19:31.185Z,18.15
2019-05-28T16:22:01.587Z,17.76
2019-05-28T16:24:32.677Z,18.11
2019-05-28T16:27:02.181Z,18.06
2019-05-28T16:29:40.394Z,17.88
2019-05-28T16:32:09.783Z,17.84
2019-05-28T16:34:46.572Z,17.68
2019-05-28T16:37:15.689Z,17.15
2019-05-28T16:39:47.429Z,17.25
2019-05-28T16:42:16.978Z,17.68
2019-05-28T16:44:46.205Z,17.28
2019-05-28T16:47:18.746Z,17.68
2019-05-28T16:49:50.933Z,17.26
2019-05-28T16:52:20.055Z,17.18
2019-05-28T16:54:50.255Z,17.25
2019-05-28T16:57:19.511Z,16.97
2019-05-28T16:59:48.621Z,16.92
2019-05-28T17:02:21.617Z,17.12
2019-05-28T17:04:50.772Z,17.26
2019-05-28T17:07:20.386Z,17.34
2019-05-28T17:09:50.488Z,17.29
2019-05-28T17:12:22.941Z,17.30
2019-05-28T17:14:54.483Z,17.41
2019-05-28T17:17:23.641Z,17.39
2019-05-28T17:19:53.154Z,17.43
2019-05-28T17:22:23.192Z,17.17
2019-05-28T17:24:55.743Z,16.80
2019-05-28T17:27:25.286Z,17.21
2019-05-28T17:29:54.798Z,16.90
2019-05-28T17:32:26.992Z,16.93
2019-05-28T17:34:57.859Z,17.24
2019-05-28T17:37:27.078Z,16.76
2019-05-28T17:39:56.224Z,16.99
2019-05-28T17:42:25.748Z,16.50
2019-05-28T17:44:58.099Z,16.72
2019-05-28T17:47:41.425Z,16.68
2019-05-28T17:50:07.631Z,16.73
2019-05-28T17:52:40.454Z,16.77
2019-05-28T17:55:15.372Z,16.48
2019-05-28T17:57:46.241Z,16.92
2019-05-28T18:00:15.681Z,17.09
2019-05-28T18:02:48.340Z,16.75
2019-05-28T18:05:16.473Z,16.81
2019-05-28T18:07:45.731Z,16.92
2019-05-28T18:10:18.717Z,16.64
2019-05-28T18:12:58.626Z,8.82
2019-05-28T18:15:28.990Z,17.89
2019-05-28T18:17:58.173Z,17.29
2019-05-28T18:20:29.192Z,17.15
2019-05-28T18:22:58.287Z,16.79
2019-05-28T18:25:27.572Z,16.82
2019-05-28T18:27:57.909Z,16.79
2019-05-28T18:30:28.810Z,16.79
2019-05-28T18:32:57.944Z,16.59
2019-05-28T18:35:27.031Z,16.49
2019-05-28T18:38:03.269Z,16.18
2019-05-28T18:40:36.595Z,16.49
2019-05-28T18:43:06.007Z,16.66
2019-05-28T18:45:36.254Z,16.35
2019-05-28T18:48:05.827Z,16.23
2019-05-28T18:50:34.949Z,16.32
2019-05-28T18:53:05.416Z,16.05
2019-05-28T18:55:35.021Z,15.84
2019-05-28T18:58:04.666Z,15.85
2019-05-28T19:00:36.855Z,16.08
2019-05-28T19:03:06.236Z,16.28
2019-05-28T19:05:37.194Z,16.09
2019-05-28T19:08:06.687Z,16.04
2019-05-28T19:10:46.311Z,16.02
2019-05-28T19:13:15.522Z,16.24
2019-05-28T19:15:44.621Z,16.10
2019-05-28T19:18:13.821Z,16.06
2019-05-28T19:20:42.929Z,15.77
2019-05-28T19:23:13.513Z,15.73
2019-05-28T19:25:46.022Z,15.70
2019-05-28T19:28:16.759Z,15.64
2019-05-28T19:30:50.611Z,15.99
2019-05-28T19:33:20.049Z,15.85
2019-05-28T19:35:49.779Z,15.85
2019-05-28T19:38:20.575Z,16.10
2019-05-28T19:40:52.033Z,15.82
2019-05-28T19:43:28.730Z,15.85
2019-05-28T19:45:57.516Z,15.98
2019-05-28T19:48:26.592Z,15.74
2019-05-28T19:50:55.821Z,15.36
2019-05-28T19:53:26.188Z,15.38
2019-05-28T19:56:00.434Z,15.54
2019-05-28T19:58:29.974Z,15.56
2019-05-28T20:00:59.158Z,15.67
2019-05-28T20:03:28.523Z,15.67
2019-05-28T20:05:58.757Z,15.62
2019-05-28T20:08:27.841Z,15.60
2019-05-28T20:10:58.906Z,15.88
2019-05-28T20:13:29.549Z,15.81
2019-05-28T20:15:58.737Z,15.65
2019-05-28T20:18:27.872Z,15.99
2019-05-28T20:20:57.168Z,15.59
2019-05-28T20:23:26.310Z,15.73
2019-05-28T20:25:56.012Z,15.74
2019-05-28T20:28:25.345Z,15.30
2019-05-28T20:30:54.434Z,15.90
2019-05-28T20:33:25.476Z,15.76
2019-05-28T20:35:54.820Z,15.88
2019-05-28T20:38:25.377Z,15.57
2019-05-28T20:41:01.914Z,15.44
2019-05-28T20:43:37.117Z,15.38
2019-05-28T20:46:06.625Z,14.86
2019-05-28T20:48:36.079Z,14.94
2019-05-28T20:51:14.587Z,15.23
2019-05-28T20:53:42.358Z,14.87
2019-05-28T20:56:16.271Z,14.97
2019-05-28T20:58:45.423Z,14.88
2019-05-28T21:01:15.885Z,14.92
2019-05-28T21:03:51.748Z,15.39
2019-05-28T21:06:23.715Z,15.35
2019-05-28T21:08:54.106Z,15.45
2019-05-28T21:11:23.595Z,15.26
2019-05-28T21:13:54.729Z,15.09
2019-05-28T21:16:25.192Z,14.66
2019-05-28T21:18:55.213Z,14.84
2019-05-28T21:21:33.524Z,14.81
2019-05-28T21:24:02.732Z,14.51
2019-05-28T21:26:32.235Z,14.65
2019-05-28T21:29:03.296Z,14.68
2019-05-28T21:31:32.875Z,14.93
2019-05-28T21:34:02.027Z,14.95
2019-05-28T21:36:32.887Z,15.36
2019-05-28T21:39:02.334Z,15.30
2019-05-28T21:41:37.783Z,15.56
2019-05-28T21:44:10.131Z,15.51
2019-05-28T21:46:39.331Z,15.76
2019-05-28T21:49:09.309Z,16.01
2019-05-28T21:51:40.738Z,15.63
2019-05-28T21:54:10.942Z,14.94
2019-05-28T21:56:42.979Z,14.81
2019-05-28T21:59:12.063Z,14.98
2019-05-28T22:01:41.777Z,14.42
2019-05-28T22:04:13.767Z,14.38
2019-05-28T22:06:42.897Z,14.12
2019-05-28T22:09:12.101Z,14.26
2019-05-28T22:11:41.290Z,14.93
2019-05-28T22:14:10.386Z,15.01
2019-05-28T22:16:39.544Z,15.13
2019-05-28T22:19:12.679Z,14.93
2019-05-28T22:21:50.378Z,14.90
2019-05-28T22:24:19.512Z,14.63
2019-05-28T22:26:52.457Z,15.06
2019-05-28T22:29:22.900Z,14.84
2019-05-28T22:31:52.378Z,14.48
2019-05-28T22:34:21.553Z,14.75
2019-05-28T22:36:50.707Z,14.81
2019-05-28T22:39:21.245Z,13.56
2019-05-28T22:41:52.894Z,14.92
2019-05-28T22:44:22.001Z,14.71
2019-05-28T22:46:52.744Z,15.02
2019-05-28T22:49:23.632Z,15.15
2019-05-28T22:51:52.961Z,7.37
2019-05-28T22:54:26.427Z,14.50
2019-05-28T22:56:55.549Z,14.21
2019-05-28T22:59:27.316Z,14.18
2019-05-28T23:02:05.073Z,14.70
2019-05-28T23:04:35.117Z,14.80
2019-05-28T23:07:05.379Z,14.63
2019-05-28T23:09:34.797Z,14.78
2019-05-28T23:12:03.908Z,14.27
2019-05-28T23:14:37.861Z,14.36
2019-05-28T23:17:06.991Z,14.54
2019-05-28T23:19:36.094Z,14.88
2019-05-28T23:22:09.622Z,14.25
2019-05-28T23:24:38.731Z,13.87
2019-05-28T23:27:09.608Z,14.13
2019-05-28T23:29:41.793Z,14.58
2019-05-28T23:32:10.953Z,14.37
2019-05-28T23:34:40.227Z,14.56
2019-05-28T23:37:11.000Z,14.66
2019-05-28T23:39:40.256Z,14.18
2019-05-28T23:42:12.145Z,13.97
2019-05-28T23:44:43.479Z,14.10
2019-05-28T23:47:15.706Z,14.02
2019-05-28T23:49:44.815Z,14.42
2019-05-28T23:52:14.825Z,14.59
2019-05-28T23:54:46.920Z,14.12
2019-05-28T23:57:18.193Z,14.08
2019-05-28T23:59:49.166Z,14.24
